sensor_id;sensor_type;location;lat;lon;timestamp;temperature;humidity
53520;DHT22;39397;53.204;5.778;2024-01-25T00:02:05;6.70;99.90
53520;DHT22;39397;53.204;5.778;2024-01-25T00:04:30;6.90;99.90
53520;DHT22;39397;53.204;5.778;2024-01-25T00:06:56;6.70;99.90
53520;DHT22;39397;53.204;5.778;2024-01-25T00:09:22;6.90;99.90
53520;DHT22;39397;53.204;5.778;2024-01-25T00:11:47;7.50;99.90
53520;DHT22;39397;53.204;5.778;2024-01-25T00:14:13;7.10;99.90
53520;DHT22;39397;53.204;5.778;2024-01-25T00:16:42;8.30;99.90
53520;DHT22;39397;53.204;5.778;2024-01-25T00:19:08;6.70;99.90
53520;DHT22;39397;53.204;5.778;2024-01-25T00:21:34;6.70;99.90
53520;DHT22;39397;53.204;5.778;2024-01-25T00:24:00;8.00;99.90
53520;DHT22;39397;53.204;5.778;2024-01-25T00:26:25;6.80;99.90
53520;DHT22;39397;53.204;5.778;2024-01-25T00:28:51;6.40;99.90
53520;DHT22;39397;53.204;5.778;2024-01-25T00:31:17;6.80;99.90
53520;DHT22;39397;53.204;5.778;2024-01-25T00:33:42;6.60;99.90
53520;DHT22;39397;53.204;5.778;2024-01-25T00:36:09;7.20;99.90
53520;DHT22;39397;53.204;5.778;2024-01-25T00:38:35;6.60;99.90
53520;DHT22;39397;53.204;5.778;2024-01-25T00:41:05;6.60;99.90
53520;DHT22;39397;53.204;5.778;2024-01-25T00:43:34;6.70;99.90
53520;DHT22;39397;53.204;5.778;2024-01-25T00:46:00;6.50;99.90
53520;DHT22;39397;53.204;5.778;2024-01-25T00:48:25;6.60;99.90
53520;DHT22;39397;53.204;5.778;2024-01-25T00:50:51;6.70;99.90
53520;DHT22;39397;53.204;5.778;2024-01-25T00:53:18;6.40;99.90
53520;DHT22;39397;53.204;5.778;2024-01-25T00:55:44;6.60;99.90
53520;DHT22;39397;53.204;5.778;2024-01-25T00:58:10;6.50;99.90
53520;DHT22;39397;53.204;5.778;2024-01-25T01:00:38;6.40;99.90
53520;DHT22;39397;53.204;5.778;2024-01-25T01:03:04;6.50;99.90
53520;DHT22;39397;53.204;5.778;2024-01-25T01:05:30;6.40;99.90
53520;DHT22;39397;53.204;5.778;2024-01-25T01:07:56;6.40;99.90
53520;DHT22;39397;53.204;5.778;2024-01-25T01:10:22;6.30;99.90
53520;DHT22;39397;53.204;5.778;2024-01-25T01:12:48;7.20;99.90
53520;DHT22;39397;53.204;5.778;2024-01-25T01:15:13;6.50;99.90
53520;DHT22;39397;53.204;5.778;2024-01-25T01:17:39;6.30;99.90
53520;DHT22;39397;53.204;5.778;2024-01-25T01:20:05;6.30;99.90
53520;DHT22;39397;53.204;5.778;2024-01-25T01:22:31;5.00;99.90
53520;DHT22;39397;53.204;5.778;2024-01-25T01:24:57;7.50;99.90
53520;DHT22;39397;53.204;5.778;2024-01-25T01:27:23;6.30;99.90
53520;DHT22;39397;53.204;5.778;2024-01-25T01:29:48;6.40;99.90
53520;DHT22;39397;53.204;5.778;2024-01-25T01:32:14;8.20;99.90
53520;DHT22;39397;53.204;5.778;2024-01-25T01:34:40;6.20;99.90
53520;DHT22;39397;53.204;5.778;2024-01-25T01:37:06;6.30;99.90
53520;DHT22;39397;53.204;5.778;2024-01-25T01:39:31;7.70;99.90
53520;DHT22;39397;53.204;5.778;2024-01-25T01:41:57;6.20;99.90
53520;DHT22;39397;53.204;5.778;2024-01-25T01:44:23;7.70;99.90
53520;DHT22;39397;53.204;5.778;2024-01-25T01:46:48;6.50;99.90
53520;DHT22;39397;53.204;5.778;2024-01-25T01:49:14;6.60;99.90
53520;DHT22;39397;53.204;5.778;2024-01-25T01:51:41;7.50;99.90
53520;DHT22;39397;53.204;5.778;2024-01-25T01:54:09;8.20;99.90
53520;DHT22;39397;53.204;5.778;2024-01-25T01:56:35;6.90;99.90
53520;DHT22;39397;53.204;5.778;2024-01-25T01:59:04;6.50;99.90
53520;DHT22;39397;53.204;5.778;2024-01-25T02:01:29;6.50;99.90
53520;DHT22;39397;53.204;5.778;2024-01-25T02:03:56;6.20;99.90
53520;DHT22;39397;53.204;5.778;2024-01-25T02:06:25;7.60;99.90
53520;DHT22;39397;53.204;5.778;2024-01-25T02:08:51;6.10;99.90
53520;DHT22;39397;53.204;5.778;2024-01-25T02:11:19;6.20;99.90
53520;DHT22;39397;53.204;5.778;2024-01-25T02:13:45;7.10;99.90
53520;DHT22;39397;53.204;5.778;2024-01-25T02:16:13;6.60;99.90
53520;DHT22;39397;53.204;5.778;2024-01-25T02:18:41;7.10;99.90
53520;DHT22;39397;53.204;5.778;2024-01-25T02:21:06;6.90;99.90
53520;DHT22;39397;53.204;5.778;2024-01-25T02:23:32;6.10;99.90
53520;DHT22;39397;53.204;5.778;2024-01-25T02:25:58;6.00;99.90
53520;DHT22;39397;53.204;5.778;2024-01-25T02:28:23;6.20;99.90
53520;DHT22;39397;53.204;5.778;2024-01-25T02:30:49;7.70;99.90
53520;DHT22;39397;53.204;5.778;2024-01-25T02:33:15;6.10;99.90
53520;DHT22;39397;53.204;5.778;2024-01-25T02:35:43;6.10;99.90
53520;DHT22;39397;53.204;5.778;2024-01-25T02:38:09;6.20;99.90
53520;DHT22;39397;53.204;5.778;2024-01-25T02:40:35;6.20;99.90
53520;DHT22;39397;53.204;5.778;2024-01-25T02:43:00;6.20;99.90
53520;DHT22;39397;53.204;5.778;2024-01-25T02:45:26;6.10;99.90
53520;DHT22;39397;53.204;5.778;2024-01-25T02:47:52;7.80;99.90
53520;DHT22;39397;53.204;5.778;2024-01-25T02:50:18;6.60;99.90
53520;DHT22;39397;53.204;5.778;2024-01-25T02:52:43;5.90;99.90
53520;DHT22;39397;53.204;5.778;2024-01-25T02:55:09;7.40;99.90
53520;DHT22;39397;53.204;5.778;2024-01-25T02:57:37;6.10;99.90
53520;DHT22;39397;53.204;5.778;2024-01-25T03:00:03;5.90;99.90
53520;DHT22;39397;53.204;5.778;2024-01-25T03:02:30;5.90;99.90
53520;DHT22;39397;53.204;5.778;2024-01-25T03:04:57;5.90;99.90
53520;DHT22;39397;53.204;5.778;2024-01-25T03:07:22;6.90;99.90
53520;DHT22;39397;53.204;5.778;2024-01-25T03:09:50;6.50;99.90
53520;DHT22;39397;53.204;5.778;2024-01-25T03:12:16;5.80;99.90
53520;DHT22;39397;53.204;5.778;2024-01-25T03:14:42;5.80;99.90
53520;DHT22;39397;53.204;5.778;2024-01-25T03:17:07;6.70;99.90
53520;DHT22;39397;53.204;5.778;2024-01-25T03:19:33;6.20;99.90
53520;DHT22;39397;53.204;5.778;2024-01-25T03:21:59;7.30;99.90
53520;DHT22;39397;53.204;5.778;2024-01-25T03:24:27;5.90;99.90
53520;DHT22;39397;53.204;5.778;2024-01-25T03:26:52;5.70;99.90
53520;DHT22;39397;53.204;5.778;2024-01-25T03:29:18;7.00;99.90
53520;DHT22;39397;53.204;5.778;2024-01-25T03:31:44;5.70;99.90
53520;DHT22;39397;53.204;5.778;2024-01-25T03:34:09;5.60;99.90
53520;DHT22;39397;53.204;5.778;2024-01-25T03:36:35;6.90;99.90
53520;DHT22;39397;53.204;5.778;2024-01-25T03:39:02;5.60;99.90
53520;DHT22;39397;53.204;5.778;2024-01-25T03:41:28;5.60;99.90
53520;DHT22;39397;53.204;5.778;2024-01-25T03:43:54;4.20;99.90
53520;DHT22;39397;53.204;5.778;2024-01-25T03:46:20;5.60;99.90
53520;DHT22;39397;53.204;5.778;2024-01-25T03:48:46;5.70;99.90
53520;DHT22;39397;53.204;5.778;2024-01-25T03:51:11;5.60;99.90
53520;DHT22;39397;53.204;5.778;2024-01-25T03:53:37;6.50;99.90
53520;DHT22;39397;53.204;5.778;2024-01-25T03:56:03;5.60;99.90
53520;DHT22;39397;53.204;5.778;2024-01-25T03:58:29;5.50;99.90
53520;DHT22;39397;53.204;5.778;2024-01-25T04:00:54;6.70;99.90
53520;DHT22;39397;53.204;5.778;2024-01-25T04:03:20;7.30;99.90
53520;DHT22;39397;53.204;5.778;2024-01-25T04:05:46;6.60;99.90
53520;DHT22;39397;53.204;5.778;2024-01-25T04:08:12;6.20;99.90
53520;DHT22;39397;53.204;5.778;2024-01-25T04:10:38;5.40;99.90
53520;DHT22;39397;53.204;5.778;2024-01-25T04:13:03;5.50;99.90
53520;DHT22;39397;53.204;5.778;2024-01-25T04:15:32;5.50;99.90
53520;DHT22;39397;53.204;5.778;2024-01-25T04:17:58;5.60;99.90
53520;DHT22;39397;53.204;5.778;2024-01-25T04:20:24;5.90;99.90
53520;DHT22;39397;53.204;5.778;2024-01-25T04:22:50;7.10;99.90
53520;DHT22;39397;53.204;5.778;2024-01-25T04:25:15;6.10;99.90
53520;DHT22;39397;53.204;5.778;2024-01-25T04:27:41;5.30;99.90
53520;DHT22;39397;53.204;5.778;2024-01-25T04:30:07;5.30;99.90
53520;DHT22;39397;53.204;5.778;2024-01-25T04:32:36;5.40;99.90
53520;DHT22;39397;53.204;5.778;2024-01-25T04:35:02;5.90;99.90
53520;DHT22;39397;53.204;5.778;2024-01-25T04:37:28;5.30;99.90
53520;DHT22;39397;53.204;5.778;2024-01-25T04:39:53;6.00;99.90
53520;DHT22;39397;53.204;5.778;2024-01-25T04:42:19;6.30;99.90
53520;DHT22;39397;53.204;5.778;2024-01-25T04:44:45;5.20;99.90
53520;DHT22;39397;53.204;5.778;2024-01-25T04:47:11;5.30;99.90
53520;DHT22;39397;53.204;5.778;2024-01-25T04:49:36;5.30;99.90
53520;DHT22;39397;53.204;5.778;2024-01-25T04:52:02;5.30;99.90
53520;DHT22;39397;53.204;5.778;2024-01-25T04:54:28;5.30;99.90
53520;DHT22;39397;53.204;5.778;2024-01-25T04:56:54;5.50;99.90
53520;DHT22;39397;53.204;5.778;2024-01-25T04:59:20;4.30;99.90
53520;DHT22;39397;53.204;5.778;2024-01-25T05:01:46;7.20;99.90
53520;DHT22;39397;53.204;5.778;2024-01-25T05:04:12;6.50;99.90
53520;DHT22;39397;53.204;5.778;2024-01-25T05:06:37;6.90;99.90
53520;DHT22;39397;53.204;5.778;2024-01-25T05:09:03;5.30;99.90
53520;DHT22;39397;53.204;5.778;2024-01-25T05:11:29;6.20;99.90
53520;DHT22;39397;53.204;5.778;2024-01-25T05:13:54;6.30;99.90
53520;DHT22;39397;53.204;5.778;2024-01-25T05:16:20;4.70;99.90
53520;DHT22;39397;53.204;5.778;2024-01-25T05:18:46;6.00;99.90
53520;DHT22;39397;53.204;5.778;2024-01-25T05:21:12;5.80;99.90
53520;DHT22;39397;53.204;5.778;2024-01-25T05:23:38;5.20;99.90
53520;DHT22;39397;53.204;5.778;2024-01-25T05:26:03;5.30;99.90
53520;DHT22;39397;53.204;5.778;2024-01-25T05:28:29;6.30;99.90
53520;DHT22;39397;53.204;5.778;2024-01-25T05:30:55;6.20;99.90
53520;DHT22;39397;53.204;5.778;2024-01-25T05:33:20;5.30;99.90
53520;DHT22;39397;53.204;5.778;2024-01-25T05:35:46;5.90;99.90
53520;DHT22;39397;53.204;5.778;2024-01-25T05:38:12;7.50;99.90
53520;DHT22;39397;53.204;5.778;2024-01-25T05:40:37;5.30;99.90
53520;DHT22;39397;53.204;5.778;2024-01-25T05:43:03;6.00;99.90
53520;DHT22;39397;53.204;5.778;2024-01-25T05:45:30;5.20;99.90
53520;DHT22;39397;53.204;5.778;2024-01-25T05:47:55;7.00;99.90
53520;DHT22;39397;53.204;5.778;2024-01-25T05:50:21;5.70;99.90
53520;DHT22;39397;53.204;5.778;2024-01-25T05:52:47;5.20;99.90
53520;DHT22;39397;53.204;5.778;2024-01-25T05:55:12;6.60;99.90
53520;DHT22;39397;53.204;5.778;2024-01-25T05:57:42;5.30;99.90
53520;DHT22;39397;53.204;5.778;2024-01-25T06:00:08;5.10;99.90
53520;DHT22;39397;53.204;5.778;2024-01-25T06:02:35;5.00;99.90
53520;DHT22;39397;53.204;5.778;2024-01-25T06:05:01;5.00;99.90
53520;DHT22;39397;53.204;5.778;2024-01-25T06:07:27;5.10;99.90
53520;DHT22;39397;53.204;5.778;2024-01-25T06:09:53;5.70;99.90
53520;DHT22;39397;53.204;5.778;2024-01-25T06:12:19;6.10;99.90
53520;DHT22;39397;53.204;5.778;2024-01-25T06:14:44;5.20;99.90
53520;DHT22;39397;53.204;5.778;2024-01-25T06:17:10;6.30;99.90
53520;DHT22;39397;53.204;5.778;2024-01-25T06:19:36;5.10;99.90
53520;DHT22;39397;53.204;5.778;2024-01-25T06:22:02;5.10;99.90
53520;DHT22;39397;53.204;5.778;2024-01-25T06:24:28;4.90;99.90
53520;DHT22;39397;53.204;5.778;2024-01-25T06:26:54;6.70;99.90
53520;DHT22;39397;53.204;5.778;2024-01-25T06:29:20;4.80;99.90
53520;DHT22;39397;53.204;5.778;2024-01-25T06:31:46;4.70;99.90
53520;DHT22;39397;53.204;5.778;2024-01-25T06:34:12;6.40;99.90
53520;DHT22;39397;53.204;5.778;2024-01-25T06:36:37;5.60;99.90
53520;DHT22;39397;53.204;5.778;2024-01-25T06:39:03;5.10;99.90
53520;DHT22;39397;53.204;5.778;2024-01-25T06:41:32;4.50;99.90
53520;DHT22;39397;53.204;5.778;2024-01-25T06:43:59;5.10;99.90
53520;DHT22;39397;53.204;5.778;2024-01-25T06:46:25;4.50;99.90
53520;DHT22;39397;53.204;5.778;2024-01-25T06:48:51;4.30;99.90
53520;DHT22;39397;53.204;5.778;2024-01-25T06:51:17;5.40;99.90
53520;DHT22;39397;53.204;5.778;2024-01-25T06:53:42;4.30;99.90
53520;DHT22;39397;53.204;5.778;2024-01-25T06:56:08;4.30;99.90
53520;DHT22;39397;53.204;5.778;2024-01-25T06:58:34;4.40;99.90
53520;DHT22;39397;53.204;5.778;2024-01-25T07:01:00;5.50;99.90
53520;DHT22;39397;53.204;5.778;2024-01-25T07:03:26;4.40;99.90
53520;DHT22;39397;53.204;5.778;2024-01-25T07:05:51;4.40;99.90
53520;DHT22;39397;53.204;5.778;2024-01-25T07:08:17;4.50;99.90
53520;DHT22;39397;53.204;5.778;2024-01-25T07:10:44;5.00;99.90
53520;DHT22;39397;53.204;5.778;2024-01-25T07:13:10;4.40;99.90
53520;DHT22;39397;53.204;5.778;2024-01-25T07:15:36;4.40;99.90
53520;DHT22;39397;53.204;5.778;2024-01-25T07:18:01;6.40;99.90
53520;DHT22;39397;53.204;5.778;2024-01-25T07:20:27;5.10;99.90
53520;DHT22;39397;53.204;5.778;2024-01-25T07:22:53;5.40;99.90
53520;DHT22;39397;53.204;5.778;2024-01-25T07:25:18;4.30;99.90
53520;DHT22;39397;53.204;5.778;2024-01-25T07:27:45;4.30;99.90
53520;DHT22;39397;53.204;5.778;2024-01-25T07:30:12;6.00;99.90
53520;DHT22;39397;53.204;5.778;2024-01-25T07:32:38;4.30;99.90
53520;DHT22;39397;53.204;5.778;2024-01-25T07:35:07;4.20;99.90
53520;DHT22;39397;53.204;5.778;2024-01-25T07:37:33;5.30;99.90
53520;DHT22;39397;53.204;5.778;2024-01-25T07:39:58;4.20;99.90
53520;DHT22;39397;53.204;5.778;2024-01-25T07:42:24;4.20;99.90
53520;DHT22;39397;53.204;5.778;2024-01-25T07:44:50;6.30;99.90
53520;DHT22;39397;53.204;5.778;2024-01-25T07:47:16;4.20;99.90
53520;DHT22;39397;53.204;5.778;2024-01-25T07:49:41;5.60;99.90
53520;DHT22;39397;53.204;5.778;2024-01-25T07:52:07;4.90;99.90
53520;DHT22;39397;53.204;5.778;2024-01-25T07:54:33;4.10;99.90
53520;DHT22;39397;53.204;5.778;2024-01-25T07:56:58;4.90;99.90
53520;DHT22;39397;53.204;5.778;2024-01-25T07:59:24;5.80;99.90
53520;DHT22;39397;53.204;5.778;2024-01-25T08:01:50;4.10;99.90
53520;DHT22;39397;53.204;5.778;2024-01-25T08:04:15;4.10;99.90
53520;DHT22;39397;53.204;5.778;2024-01-25T08:06:41;4.20;99.90
53520;DHT22;39397;53.204;5.778;2024-01-25T08:09:07;4.10;99.90
53520;DHT22;39397;53.204;5.778;2024-01-25T08:11:34;5.80;99.90
53520;DHT22;39397;53.204;5.778;2024-01-25T08:14:00;4.30;99.90
53520;DHT22;39397;53.204;5.778;2024-01-25T08:16:26;5.30;99.90
53520;DHT22;39397;53.204;5.778;2024-01-25T08:18:52;4.30;99.90
53520;DHT22;39397;53.204;5.778;2024-01-25T08:21:17;4.30;99.90
53520;DHT22;39397;53.204;5.778;2024-01-25T08:23:43;6.00;99.90
53520;DHT22;39397;53.204;5.778;2024-01-25T08:26:09;4.50;99.90
53520;DHT22;39397;53.204;5.778;2024-01-25T08:28:39;5.50;99.90
53520;DHT22;39397;53.204;5.778;2024-01-25T08:31:05;6.40;99.90
53520;DHT22;39397;53.204;5.778;2024-01-25T08:33:31;4.50;99.90
53520;DHT22;39397;53.204;5.778;2024-01-25T08:35:57;6.30;99.90
53520;DHT22;39397;53.204;5.778;2024-01-25T08:38:23;5.40;99.90
53520;DHT22;39397;53.204;5.778;2024-01-25T08:40:48;5.80;99.90
53520;DHT22;39397;53.204;5.778;2024-01-25T08:43:14;6.20;99.90
53520;DHT22;39397;53.204;5.778;2024-01-25T08:45:40;6.00;99.90
53520;DHT22;39397;53.204;5.778;2024-01-25T08:48:06;4.60;99.90
53520;DHT22;39397;53.204;5.778;2024-01-25T08:50:34;4.70;99.90
53520;DHT22;39397;53.204;5.778;2024-01-25T08:53:01;4.70;99.90
53520;DHT22;39397;53.204;5.778;2024-01-25T08:55:26;4.80;99.90
53520;DHT22;39397;53.204;5.778;2024-01-25T08:57:52;6.80;99.90
53520;DHT22;39397;53.204;5.778;2024-01-25T09:00:18;4.90;99.90
53520;DHT22;39397;53.204;5.778;2024-01-25T09:02:44;4.80;99.90
53520;DHT22;39397;53.204;5.778;2024-01-25T09:05:10;6.10;99.90
53520;DHT22;39397;53.204;5.778;2024-01-25T09:07:36;5.50;99.90
53520;DHT22;39397;53.204;5.778;2024-01-25T09:10:02;6.80;99.90
53520;DHT22;39397;53.204;5.778;2024-01-25T09:12:30;5.00;99.90
53520;DHT22;39397;53.204;5.778;2024-01-25T09:14:55;5.20;99.90
53520;DHT22;39397;53.204;5.778;2024-01-25T09:17:27;5.30;99.90
53520;DHT22;39397;53.204;5.778;2024-01-25T09:19:53;5.20;99.90
53520;DHT22;39397;53.204;5.778;2024-01-25T09:22:19;6.90;99.90
53520;DHT22;39397;53.204;5.778;2024-01-25T09:24:46;5.10;99.90
53520;DHT22;39397;53.204;5.778;2024-01-25T09:27:12;5.20;99.90
53520;DHT22;39397;53.204;5.778;2024-01-25T09:29:41;5.30;99.90
53520;DHT22;39397;53.204;5.778;2024-01-25T09:32:08;5.30;99.90
53520;DHT22;39397;53.204;5.778;2024-01-25T09:34:35;5.40;99.90
53520;DHT22;39397;53.204;5.778;2024-01-25T09:37:01;6.90;99.90
53520;DHT22;39397;53.204;5.778;2024-01-25T09:39:28;5.30;99.90
53520;DHT22;39397;53.204;5.778;2024-01-25T09:41:54;5.90;99.90
53520;DHT22;39397;53.204;5.778;2024-01-25T09:44:20;4.20;99.90
53520;DHT22;39397;53.204;5.778;2024-01-25T09:46:46;6.90;99.90
53520;DHT22;39397;53.204;5.778;2024-01-25T09:49:11;5.40;99.90
53520;DHT22;39397;53.204;5.778;2024-01-25T09:51:40;5.90;99.90
53520;DHT22;39397;53.204;5.778;2024-01-25T09:54:06;5.60;99.90
53520;DHT22;39397;53.204;5.778;2024-01-25T09:56:33;5.70;99.90
53520;DHT22;39397;53.204;5.778;2024-01-25T09:58:59;5.70;99.90
53520;DHT22;39397;53.204;5.778;2024-01-25T10:01:27;6.30;99.90
53520;DHT22;39397;53.204;5.778;2024-01-25T10:03:53;7.40;99.90
53520;DHT22;39397;53.204;5.778;2024-01-25T10:06:22;6.90;99.90
53520;DHT22;39397;53.204;5.778;2024-01-25T10:08:48;5.70;99.90
53520;DHT22;39397;53.204;5.778;2024-01-25T10:11:15;7.80;99.90
53520;DHT22;39397;53.204;5.778;2024-01-25T10:13:42;6.00;99.90
53520;DHT22;39397;53.204;5.778;2024-01-25T10:16:17;6.20;99.90
53520;DHT22;39397;53.204;5.778;2024-01-25T10:18:46;7.30;99.90
53520;DHT22;39397;53.204;5.778;2024-01-25T10:21:13;6.50;99.90
53520;DHT22;39397;53.204;5.778;2024-01-25T10:23:40;6.40;99.90
53520;DHT22;39397;53.204;5.778;2024-01-25T10:26:08;7.30;99.90
53520;DHT22;39397;53.204;5.778;2024-01-25T10:28:34;7.60;99.90
53520;DHT22;39397;53.204;5.778;2024-01-25T10:31:01;6.70;99.90
53520;DHT22;39397;53.204;5.778;2024-01-25T10:33:30;7.00;99.90
53520;DHT22;39397;53.204;5.778;2024-01-25T10:35:57;8.30;99.90
53520;DHT22;39397;53.204;5.778;2024-01-25T10:38:35;7.70;99.90
53520;DHT22;39397;53.204;5.778;2024-01-25T10:41:04;7.30;99.90
53520;DHT22;39397;53.204;5.778;2024-01-25T10:43:31;7.60;99.90
53520;DHT22;39397;53.204;5.778;2024-01-25T10:45:57;8.30;99.90
53520;DHT22;39397;53.204;5.778;2024-01-25T10:48:27;8.50;99.90
53520;DHT22;39397;53.204;5.778;2024-01-25T10:50:57;7.40;99.90
53520;DHT22;39397;53.204;5.778;2024-01-25T10:53:25;7.60;99.90
53520;DHT22;39397;53.204;5.778;2024-01-25T10:55:52;7.70;99.90
53520;DHT22;39397;53.204;5.778;2024-01-25T10:58:18;8.00;99.90
53520;DHT22;39397;53.204;5.778;2024-01-25T11:00:56;7.80;99.90
53520;DHT22;39397;53.204;5.778;2024-01-25T11:03:27;8.00;99.90
53520;DHT22;39397;53.204;5.778;2024-01-25T11:05:55;8.10;99.90
53520;DHT22;39397;53.204;5.778;2024-01-25T11:08:21;9.60;99.90
53520;DHT22;39397;53.204;5.778;2024-01-25T11:10:51;8.80;99.90
53520;DHT22;39397;53.204;5.778;2024-01-25T11:13:27;8.20;99.90
53520;DHT22;39397;53.204;5.778;2024-01-25T11:15:53;8.20;99.90
53520;DHT22;39397;53.204;5.778;2024-01-25T11:18:19;8.20;99.90
53520;DHT22;39397;53.204;5.778;2024-01-25T11:20:47;8.70;99.90
53520;DHT22;39397;53.204;5.778;2024-01-25T11:23:15;8.60;99.90
53520;DHT22;39397;53.204;5.778;2024-01-25T11:25:44;8.10;99.90
53520;DHT22;39397;53.204;5.778;2024-01-25T11:28:11;8.10;99.90
53520;DHT22;39397;53.204;5.778;2024-01-25T11:30:39;8.40;99.90
53520;DHT22;39397;53.204;5.778;2024-01-25T11:33:08;8.10;99.90
53520;DHT22;39397;53.204;5.778;2024-01-25T11:35:35;8.50;99.90
53520;DHT22;39397;53.204;5.778;2024-01-25T11:38:00;9.20;99.90
53520;DHT22;39397;53.204;5.778;2024-01-25T11:40:26;8.00;99.90
53520;DHT22;39397;53.204;5.778;2024-01-25T11:42:54;7.90;99.90
53520;DHT22;39397;53.204;5.778;2024-01-25T11:45:20;7.90;99.90
53520;DHT22;39397;53.204;5.778;2024-01-25T11:47:46;8.00;99.90
53520;DHT22;39397;53.204;5.778;2024-01-25T11:50:12;8.40;99.90
53520;DHT22;39397;53.204;5.778;2024-01-25T11:52:39;8.20;99.90
53520;DHT22;39397;53.204;5.778;2024-01-25T11:55:06;8.10;99.90
53520;DHT22;39397;53.204;5.778;2024-01-25T11:57:40;8.10;99.90
53520;DHT22;39397;53.204;5.778;2024-01-25T12:00:07;8.20;99.90
53520;DHT22;39397;53.204;5.778;2024-01-25T12:02:33;8.10;99.90
53520;DHT22;39397;53.204;5.778;2024-01-25T12:04:59;8.20;99.90
53520;DHT22;39397;53.204;5.778;2024-01-25T12:07:25;8.20;99.90
53520;DHT22;39397;53.204;5.778;2024-01-25T12:10:03;8.30;99.90
53520;DHT22;39397;53.204;5.778;2024-01-25T12:12:29;9.20;99.90
53520;DHT22;39397;53.204;5.778;2024-01-25T12:14:59;8.30;99.90
53520;DHT22;39397;53.204;5.778;2024-01-25T12:17:32;8.40;99.90
53520;DHT22;39397;53.204;5.778;2024-01-25T12:19:58;8.30;99.90
53520;DHT22;39397;53.204;5.778;2024-01-25T12:22:27;8.40;99.90
53520;DHT22;39397;53.204;5.778;2024-01-25T12:24:54;8.80;99.90
53520;DHT22;39397;53.204;5.778;2024-01-25T12:27:21;8.70;99.90
53520;DHT22;39397;53.204;5.778;2024-01-25T12:29:53;8.80;99.90
53520;DHT22;39397;53.204;5.778;2024-01-25T12:32:20;8.60;99.90
53520;DHT22;39397;53.204;5.778;2024-01-25T12:35:00;8.30;99.90
53520;DHT22;39397;53.204;5.778;2024-01-25T12:37:33;8.40;99.90
53520;DHT22;39397;53.204;5.778;2024-01-25T12:39:59;8.20;99.90
53520;DHT22;39397;53.204;5.778;2024-01-25T12:42:25;9.40;99.90
53520;DHT22;39397;53.204;5.778;2024-01-25T12:44:53;8.20;99.90
53520;DHT22;39397;53.204;5.778;2024-01-25T12:47:21;8.00;99.90
53520;DHT22;39397;53.204;5.778;2024-01-25T12:49:47;9.30;99.90
53520;DHT22;39397;53.204;5.778;2024-01-25T12:52:14;8.10;99.90
53520;DHT22;39397;53.204;5.778;2024-01-25T12:54:41;9.70;99.90
53520;DHT22;39397;53.204;5.778;2024-01-25T12:57:07;8.10;99.90
53520;DHT22;39397;53.204;5.778;2024-01-25T12:59:34;8.20;99.90
53520;DHT22;39397;53.204;5.778;2024-01-25T13:02:00;8.40;99.90
53520;DHT22;39397;53.204;5.778;2024-01-25T13:04:26;9.10;99.90
53520;DHT22;39397;53.204;5.778;2024-01-25T13:06:55;8.10;99.90
53520;DHT22;39397;53.204;5.778;2024-01-25T13:09:22;8.10;99.90
53520;DHT22;39397;53.204;5.778;2024-01-25T13:11:48;8.00;99.90
53520;DHT22;39397;53.204;5.778;2024-01-25T13:14:14;7.90;99.90
53520;DHT22;39397;53.204;5.778;2024-01-25T13:16:40;8.20;99.90
53520;DHT22;39397;53.204;5.778;2024-01-25T13:19:05;8.00;99.90
53520;DHT22;39397;53.204;5.778;2024-01-25T13:21:32;8.10;99.90
53520;DHT22;39397;53.204;5.778;2024-01-25T13:23:59;8.40;99.90
53520;DHT22;39397;53.204;5.778;2024-01-25T13:26:26;8.40;99.90
53520;DHT22;39397;53.204;5.778;2024-01-25T13:28:52;8.30;99.90
53520;DHT22;39397;53.204;5.778;2024-01-25T13:31:18;8.40;99.90
53520;DHT22;39397;53.204;5.778;2024-01-25T13:33:43;8.30;99.90
53520;DHT22;39397;53.204;5.778;2024-01-25T13:36:11;8.30;99.90
53520;DHT22;39397;53.204;5.778;2024-01-25T13:38:42;8.20;99.90
53520;DHT22;39397;53.204;5.778;2024-01-25T13:41:08;8.30;99.90
53520;DHT22;39397;53.204;5.778;2024-01-25T13:43:33;8.30;99.90
53520;DHT22;39397;53.204;5.778;2024-01-25T13:45:59;8.20;99.90
53520;DHT22;39397;53.204;5.778;2024-01-25T13:48:25;8.60;99.90
53520;DHT22;39397;53.204;5.778;2024-01-25T13:50:50;8.30;99.90
53520;DHT22;39397;53.204;5.778;2024-01-25T13:53:16;8.60;99.90
53520;DHT22;39397;53.204;5.778;2024-01-25T13:55:43;9.00;99.90
53520;DHT22;39397;53.204;5.778;2024-01-25T13:58:08;8.40;99.90
53520;DHT22;39397;53.204;5.778;2024-01-25T14:00:34;8.50;99.90
53520;DHT22;39397;53.204;5.778;2024-01-25T14:03:03;8.90;99.90
53520;DHT22;39397;53.204;5.778;2024-01-25T14:05:28;8.40;99.90
53520;DHT22;39397;53.204;5.778;2024-01-25T14:07:54;9.40;99.90
53520;DHT22;39397;53.204;5.778;2024-01-25T14:10:20;8.40;99.90
53520;DHT22;39397;53.204;5.778;2024-01-25T14:12:46;8.30;99.90
53520;DHT22;39397;53.204;5.778;2024-01-25T14:15:13;8.30;99.90
53520;DHT22;39397;53.204;5.778;2024-01-25T14:17:38;8.30;99.90
53520;DHT22;39397;53.204;5.778;2024-01-25T14:20:04;8.20;99.90
53520;DHT22;39397;53.204;5.778;2024-01-25T14:22:30;8.30;99.90
53520;DHT22;39397;53.204;5.778;2024-01-25T14:24:56;8.40;99.90
53520;DHT22;39397;53.204;5.778;2024-01-25T14:27:22;8.40;99.90
53520;DHT22;39397;53.204;5.778;2024-01-25T14:29:48;8.20;99.90
53520;DHT22;39397;53.204;5.778;2024-01-25T14:32:13;8.30;99.90
53520;DHT22;39397;53.204;5.778;2024-01-25T14:34:39;8.30;99.90
53520;DHT22;39397;53.204;5.778;2024-01-25T14:37:06;8.30;99.90
53520;DHT22;39397;53.204;5.778;2024-01-25T14:39:31;8.20;99.90
53520;DHT22;39397;53.204;5.778;2024-01-25T14:41:57;8.30;99.90
53520;DHT22;39397;53.204;5.778;2024-01-25T14:44:23;8.30;99.90
53520;DHT22;39397;53.204;5.778;2024-01-25T14:46:48;9.70;99.90
53520;DHT22;39397;53.204;5.778;2024-01-25T14:49:14;8.30;99.90
53520;DHT22;39397;53.204;5.778;2024-01-25T14:51:40;8.30;99.90
53520;DHT22;39397;53.204;5.778;2024-01-25T14:54:06;8.40;99.90
53520;DHT22;39397;53.204;5.778;2024-01-25T14:56:32;8.20;99.90
53520;DHT22;39397;53.204;5.778;2024-01-25T14:58:58;8.10;99.90
53520;DHT22;39397;53.204;5.778;2024-01-25T15:01:24;8.10;99.90
53520;DHT22;39397;53.204;5.778;2024-01-25T15:03:53;8.10;99.90
53520;DHT22;39397;53.204;5.778;2024-01-25T15:06:19;8.10;99.90
53520;DHT22;39397;53.204;5.778;2024-01-25T15:08:45;8.00;99.90
53520;DHT22;39397;53.204;5.778;2024-01-25T15:11:12;6.70;99.90
53520;DHT22;39397;53.204;5.778;2024-01-25T15:13:37;8.00;99.90
53520;DHT22;39397;53.204;5.778;2024-01-25T15:16:03;8.40;99.90
53520;DHT22;39397;53.204;5.778;2024-01-25T15:18:29;8.00;99.90
53520;DHT22;39397;53.204;5.778;2024-01-25T15:20:55;7.90;99.90
53520;DHT22;39397;53.204;5.778;2024-01-25T15:23:21;7.80;99.90
53520;DHT22;39397;53.204;5.778;2024-01-25T15:25:47;7.90;99.90
53520;DHT22;39397;53.204;5.778;2024-01-25T15:28:12;8.00;99.90
53520;DHT22;39397;53.204;5.778;2024-01-25T15:30:38;7.80;99.90
53520;DHT22;39397;53.204;5.778;2024-01-25T15:33:04;7.70;99.90
53520;DHT22;39397;53.204;5.778;2024-01-25T15:35:31;7.90;99.90
53520;DHT22;39397;53.204;5.778;2024-01-25T15:37:56;8.10;99.90
53520;DHT22;39397;53.204;5.778;2024-01-25T15:40:22;7.80;99.90